sensor_id;sensor_type;location;lat;lon;timestamp;P1;durP1;ratioP1;P2;durP2;ratioP2
77581;SDS011;66726;52.388;9.986;2023-04-06T00:02:16;14.97;;;13.37;;
77581;SDS011;66726;52.388;9.986;2023-04-06T00:04:48;15.77;;;13.10;;
77581;SDS011;66726;52.388;9.986;2023-04-06T00:07:22;17.53;;;13.87;;
77581;SDS011;66726;52.388;9.986;2023-04-06T00:09:54;15.13;;;13.10;;
77581;SDS011;66726;52.388;9.986;2023-04-06T00:12:26;14.47;;;12.97;;
77581;SDS011;66726;52.388;9.986;2023-04-06T00:14:58;15.37;;;12.40;;
77581;SDS011;66726;52.388;9.986;2023-04-06T00:17:31;14.90;;;12.33;;
77581;SDS011;66726;52.388;9.986;2023-04-06T00:20:04;12.20;;;10.90;;
77581;SDS011;66726;52.388;9.986;2023-04-06T00:22:39;15.40;;;12.27;;
77581;SDS011;66726;52.388;9.986;2023-04-06T00:25:11;12.80;;;11.40;;
77581;SDS011;66726;52.388;9.986;2023-04-06T00:27:43;15.10;;;11.73;;
77581;SDS011;66726;52.388;9.986;2023-04-06T00:30:15;12.97;;;11.57;;
77581;SDS011;66726;52.388;9.986;2023-04-06T00:32:47;12.67;;;11.37;;
77581;SDS011;66726;52.388;9.986;2023-04-06T00:35:19;12.77;;;11.00;;
77581;SDS011;66726;52.388;9.986;2023-04-06T00:37:52;13.37;;;11.97;;
77581;SDS011;66726;52.388;9.986;2023-04-06T00:40:25;13.23;;;10.93;;
77581;SDS011;66726;52.388;9.986;2023-04-06T00:42:58;14.60;;;10.73;;
77581;SDS011;66726;52.388;9.986;2023-04-06T00:45:30;13.47;;;11.80;;
77581;SDS011;66726;52.388;9.986;2023-04-06T00:48:02;13.50;;;10.70;;
77581;SDS011;66726;52.388;9.986;2023-04-06T00:50:35;15.30;;;12.47;;
77581;SDS011;66726;52.388;9.986;2023-04-06T00:53:08;13.70;;;11.37;;
77581;SDS011;66726;52.388;9.986;2023-04-06T00:55:40;13.40;;;11.23;;
77581;SDS011;66726;52.388;9.986;2023-04-06T00:58:12;13.80;;;11.47;;
77581;SDS011;66726;52.388;9.986;2023-04-06T01:00:44;13.40;;;12.00;;
77581;SDS011;66726;52.388;9.986;2023-04-06T01:03:16;19.67;;;11.67;;
77581;SDS011;66726;52.388;9.986;2023-04-06T01:05:48;12.80;;;11.57;;
77581;SDS011;66726;52.388;9.986;2023-04-06T01:08:25;13.23;;;11.93;;
77581;SDS011;66726;52.388;9.986;2023-04-06T01:10:58;14.07;;;12.43;;
77581;SDS011;66726;52.388;9.986;2023-04-06T01:13:30;13.17;;;11.60;;
77581;SDS011;66726;52.388;9.986;2023-04-06T01:16:02;14.70;;;11.87;;
77581;SDS011;66726;52.388;9.986;2023-04-06T01:18:37;14.43;;;11.97;;
77581;SDS011;66726;52.388;9.986;2023-04-06T01:21:09;15.00;;;12.97;;
77581;SDS011;66726;52.388;9.986;2023-04-06T01:23:44;15.20;;;11.83;;
77581;SDS011;66726;52.388;9.986;2023-04-06T01:26:16;14.07;;;12.53;;
77581;SDS011;66726;52.388;9.986;2023-04-06T01:28:48;14.43;;;12.43;;
77581;SDS011;66726;52.388;9.986;2023-04-06T01:31:20;14.53;;;12.60;;
77581;SDS011;66726;52.388;9.986;2023-04-06T01:33:53;15.07;;;12.67;;
77581;SDS011;66726;52.388;9.986;2023-04-06T01:36:25;14.40;;;12.67;;
77581;SDS011;66726;52.388;9.986;2023-04-06T01:38:59;14.07;;;12.57;;
77581;SDS011;66726;52.388;9.986;2023-04-06T01:41:31;15.80;;;13.07;;
77581;SDS011;66726;52.388;9.986;2023-04-06T01:44:03;15.20;;;13.43;;
77581;SDS011;66726;52.388;9.986;2023-04-06T01:46:36;18.30;;;13.53;;
77581;SDS011;66726;52.388;9.986;2023-04-06T01:49:08;15.53;;;13.97;;
77581;SDS011;66726;52.388;9.986;2023-04-06T01:51:40;15.20;;;13.00;;
77581;SDS011;66726;52.388;9.986;2023-04-06T01:54:13;15.60;;;13.73;;
77581;SDS011;66726;52.388;9.986;2023-04-06T01:56:45;15.23;;;13.37;;
77581;SDS011;66726;52.388;9.986;2023-04-06T01:59:18;17.27;;;13.67;;
77581;SDS011;66726;52.388;9.986;2023-04-06T02:01:50;16.23;;;13.87;;
77581;SDS011;66726;52.388;9.986;2023-04-06T02:04:22;16.07;;;14.37;;
77581;SDS011;66726;52.388;9.986;2023-04-06T02:06:54;17.13;;;13.83;;
77581;SDS011;66726;52.388;9.986;2023-04-06T02:09:27;15.80;;;13.83;;
77581;SDS011;66726;52.388;9.986;2023-04-06T02:12:00;15.50;;;13.87;;
77581;SDS011;66726;52.388;9.986;2023-04-06T02:14:32;15.60;;;14.07;;
77581;SDS011;66726;52.388;9.986;2023-04-06T02:17:04;17.10;;;15.30;;
77581;SDS011;66726;52.388;9.986;2023-04-06T02:19:36;15.60;;;14.00;;
77581;SDS011;66726;52.388;9.986;2023-04-06T02:22:08;17.77;;;14.23;;
77581;SDS011;66726;52.388;9.986;2023-04-06T02:24:42;15.80;;;13.00;;
77581;SDS011;66726;52.388;9.986;2023-04-06T02:27:14;15.07;;;13.50;;
77581;SDS011;66726;52.388;9.986;2023-04-06T02:29:46;15.23;;;13.60;;
77581;SDS011;66726;52.388;9.986;2023-04-06T02:32:18;14.83;;;13.27;;
77581;SDS011;66726;52.388;9.986;2023-04-06T02:34:50;16.27;;;14.00;;
77581;SDS011;66726;52.388;9.986;2023-04-06T02:37:22;17.10;;;14.23;;
77581;SDS011;66726;52.388;9.986;2023-04-06T02:39:55;16.80;;;13.67;;
77581;SDS011;66726;52.388;9.986;2023-04-06T02:42:27;16.23;;;14.53;;
77581;SDS011;66726;52.388;9.986;2023-04-06T02:44:59;15.03;;;13.40;;
77581;SDS011;66726;52.388;9.986;2023-04-06T02:47:31;16.63;;;14.07;;
77581;SDS011;66726;52.388;9.986;2023-04-06T02:50:03;17.10;;;15.30;;
77581;SDS011;66726;52.388;9.986;2023-04-06T02:52:37;15.63;;;14.07;;
77581;SDS011;66726;52.388;9.986;2023-04-06T02:55:10;17.57;;;13.77;;
77581;SDS011;66726;52.388;9.986;2023-04-06T02:57:42;16.50;;;14.03;;
77581;SDS011;66726;52.388;9.986;2023-04-06T03:00:14;15.30;;;12.97;;
77581;SDS011;66726;52.388;9.986;2023-04-06T03:02:48;14.67;;;13.03;;
77581;SDS011;66726;52.388;9.986;2023-04-06T03:05:20;15.30;;;13.50;;
77581;SDS011;66726;52.388;9.986;2023-04-06T03:07:51;14.93;;;13.33;;
77581;SDS011;66726;52.388;9.986;2023-04-06T03:10:25;16.23;;;13.30;;
77581;SDS011;66726;52.388;9.986;2023-04-06T03:12:56;17.00;;;13.20;;
77581;SDS011;66726;52.388;9.986;2023-04-06T03:15:28;17.47;;;15.07;;
77581;SDS011;66726;52.388;9.986;2023-04-06T03:18:00;18.63;;;15.27;;
77581;SDS011;66726;52.388;9.986;2023-04-06T03:20:32;16.00;;;14.27;;
77581;SDS011;66726;52.388;9.986;2023-04-06T03:23:04;17.27;;;15.10;;
77581;SDS011;66726;52.388;9.986;2023-04-06T03:25:37;15.37;;;13.77;;
77581;SDS011;66726;52.388;9.986;2023-04-06T03:28:09;17.27;;;14.43;;
77581;SDS011;66726;52.388;9.986;2023-04-06T03:30:42;16.80;;;13.40;;
77581;SDS011;66726;52.388;9.986;2023-04-06T03:33:13;14.97;;;13.30;;
77581;SDS011;66726;52.388;9.986;2023-04-06T03:35:45;15.83;;;13.20;;
77581;SDS011;66726;52.388;9.986;2023-04-06T03:38:17;16.07;;;12.70;;
77581;SDS011;66726;52.388;9.986;2023-04-06T03:40:51;13.20;;;11.80;;
77581;SDS011;66726;52.388;9.986;2023-04-06T03:43:22;14.53;;;11.70;;
77581;SDS011;66726;52.388;9.986;2023-04-06T03:45:54;13.97;;;11.23;;
77581;SDS011;66726;52.388;9.986;2023-04-06T03:48:26;21.23;;;11.60;;
77581;SDS011;66726;52.388;9.986;2023-04-06T03:50:58;14.07;;;11.67;;
77581;SDS011;66726;52.388;9.986;2023-04-06T03:53:30;13.70;;;12.30;;
77581;SDS011;66726;52.388;9.986;2023-04-06T03:56:05;12.67;;;11.47;;
77581;SDS011;66726;52.388;9.986;2023-04-06T03:58:37;14.07;;;11.80;;
77581;SDS011;66726;52.388;9.986;2023-04-06T04:01:11;15.13;;;11.97;;
77581;SDS011;66726;52.388;9.986;2023-04-06T04:03:43;13.40;;;12.00;;
77581;SDS011;66726;52.388;9.986;2023-04-06T04:06:17;13.10;;;11.00;;
77581;SDS011;66726;52.388;9.986;2023-04-06T04:08:49;14.63;;;12.30;;
77581;SDS011;66726;52.388;9.986;2023-04-06T04:11:22;13.77;;;11.90;;
77581;SDS011;66726;52.388;9.986;2023-04-06T04:13:54;14.00;;;10.87;;
77581;SDS011;66726;52.388;9.986;2023-04-06T04:16:26;13.03;;;11.63;;
77581;SDS011;66726;52.388;9.986;2023-04-06T04:18:58;12.43;;;10.47;;
77581;SDS011;66726;52.388;9.986;2023-04-06T04:21:31;13.10;;;11.40;;
77581;SDS011;66726;52.388;9.986;2023-04-06T04:24:09;12.43;;;11.13;;
77581;SDS011;66726;52.388;9.986;2023-04-06T04:26:42;13.00;;;10.27;;
77581;SDS011;66726;52.388;9.986;2023-04-06T04:29:14;11.77;;;10.33;;
77581;SDS011;66726;52.388;9.986;2023-04-06T04:31:47;12.03;;;10.73;;
77581;SDS011;66726;52.388;9.986;2023-04-06T04:34:19;12.17;;;9.80;;
77581;SDS011;66726;52.388;9.986;2023-04-06T04:36:52;11.50;;;10.30;;
77581;SDS011;66726;52.388;9.986;2023-04-06T04:39:24;10.50;;;9.40;;
77581;SDS011;66726;52.388;9.986;2023-04-06T04:41:59;11.03;;;9.90;;
77581;SDS011;66726;52.388;9.986;2023-04-06T04:44:31;13.23;;;10.20;;
77581;SDS011;66726;52.388;9.986;2023-04-06T04:47:03;10.83;;;9.60;;
77581;SDS011;66726;52.388;9.986;2023-04-06T04:49:35;13.00;;;10.13;;
77581;SDS011;66726;52.388;9.986;2023-04-06T04:52:07;12.70;;;9.90;;
77581;SDS011;66726;52.388;9.986;2023-04-06T04:54:39;12.50;;;9.43;;
77581;SDS011;66726;52.388;9.986;2023-04-06T04:57:14;11.47;;;10.27;;
77581;SDS011;66726;52.388;9.986;2023-04-06T04:59:46;13.80;;;11.53;;
77581;SDS011;66726;52.388;9.986;2023-04-06T05:02:18;13.70;;;11.63;;
77581;SDS011;66726;52.388;9.986;2023-04-06T05:04:50;12.03;;;10.57;;
77581;SDS011;66726;52.388;9.986;2023-04-06T05:07:22;13.37;;;11.30;;
77581;SDS011;66726;52.388;9.986;2023-04-06T05:09:54;16.40;;;11.10;;
77581;SDS011;66726;52.388;9.986;2023-04-06T05:12:27;11.50;;;10.30;;
77581;SDS011;66726;52.388;9.986;2023-04-06T05:14:59;16.30;;;11.50;;
77581;SDS011;66726;52.388;9.986;2023-04-06T05:17:31;19.87;;;12.87;;
77581;SDS011;66726;52.388;9.986;2023-04-06T05:20:04;22.37;;;13.53;;
77581;SDS011;66726;52.388;9.986;2023-04-06T05:22:38;32.27;;;16.23;;
77581;SDS011;66726;52.388;9.986;2023-04-06T05:25:10;27.17;;;16.07;;
77581;SDS011;66726;52.388;9.986;2023-04-06T05:27:44;32.67;;;17.67;;
77581;SDS011;66726;52.388;9.986;2023-04-06T05:30:16;31.47;;;16.77;;
77581;SDS011;66726;52.388;9.986;2023-04-06T05:32:49;27.63;;;16.80;;
77581;SDS011;66726;52.388;9.986;2023-04-06T05:35:21;29.40;;;16.00;;
77581;SDS011;66726;52.388;9.986;2023-04-06T05:37:53;28.33;;;14.60;;
77581;SDS011;66726;52.388;9.986;2023-04-06T05:40:25;27.30;;;14.60;;
77581;SDS011;66726;52.388;9.986;2023-04-06T05:42:58;25.27;;;14.87;;
77581;SDS011;66726;52.388;9.986;2023-04-06T05:45:30;30.13;;;16.03;;
77581;SDS011;66726;52.388;9.986;2023-04-06T05:48:03;26.83;;;15.57;;
77581;SDS011;66726;52.388;9.986;2023-04-06T05:50:34;29.67;;;16.53;;
77581;SDS011;66726;52.388;9.986;2023-04-06T05:53:06;37.23;;;19.33;;
77581;SDS011;66726;52.388;9.986;2023-04-06T05:55:38;33.37;;;18.10;;
77581;SDS011;66726;52.388;9.986;2023-04-06T05:58:11;38.77;;;19.10;;
77581;SDS011;66726;52.388;9.986;2023-04-06T06:00:44;40.07;;;20.10;;
77581;SDS011;66726;52.388;9.986;2023-04-06T06:03:16;31.93;;;16.80;;
77581;SDS011;66726;52.388;9.986;2023-04-06T06:05:48;34.83;;;17.70;;
77581;SDS011;66726;52.388;9.986;2023-04-06T06:08:21;26.13;;;15.50;;
77581;SDS011;66726;52.388;9.986;2023-04-06T06:10:52;23.97;;;13.87;;
77581;SDS011;66726;52.388;9.986;2023-04-06T06:13:26;27.27;;;14.57;;
77581;SDS011;66726;52.388;9.986;2023-04-06T06:15:57;22.90;;;13.40;;
77581;SDS011;66726;52.388;9.986;2023-04-06T06:18:31;29.70;;;14.70;;
77581;SDS011;66726;52.388;9.986;2023-04-06T06:21:03;29.93;;;15.07;;
77581;SDS011;66726;52.388;9.986;2023-04-06T06:23:35;25.00;;;13.83;;
77581;SDS011;66726;52.388;9.986;2023-04-06T06:26:07;21.80;;;12.10;;
77581;SDS011;66726;52.388;9.986;2023-04-06T06:28:40;19.63;;;11.00;;
77581;SDS011;66726;52.388;9.986;2023-04-06T06:31:12;21.60;;;11.60;;
77581;SDS011;66726;52.388;9.986;2023-04-06T06:33:46;18.53;;;11.00;;
77581;SDS011;66726;52.388;9.986;2023-04-06T06:36:18;19.77;;;11.20;;
77581;SDS011;66726;52.388;9.986;2023-04-06T06:38:51;16.13;;;10.83;;
77581;SDS011;66726;52.388;9.986;2023-04-06T06:41:23;19.57;;;11.80;;
77581;SDS011;66726;52.388;9.986;2023-04-06T06:43:57;21.47;;;12.40;;
77581;SDS011;66726;52.388;9.986;2023-04-06T06:46:30;26.00;;;12.93;;
77581;SDS011;66726;52.388;9.986;2023-04-06T06:49:02;36.00;;;15.47;;
77581;SDS011;66726;52.388;9.986;2023-04-06T06:51:34;39.73;;;15.60;;
77581;SDS011;66726;52.388;9.986;2023-04-06T06:54:06;33.93;;;14.83;;
77581;SDS011;66726;52.388;9.986;2023-04-06T06:56:38;30.20;;;15.50;;
77581;SDS011;66726;52.388;9.986;2023-04-06T06:59:11;31.43;;;14.67;;
77581;SDS011;66726;52.388;9.986;2023-04-06T07:01:43;22.97;;;13.33;;
77581;SDS011;66726;52.388;9.986;2023-04-06T07:04:16;18.50;;;12.57;;
77581;SDS011;66726;52.388;9.986;2023-04-06T07:06:48;17.73;;;11.43;;
77581;SDS011;66726;52.388;9.986;2023-04-06T07:09:20;21.67;;;13.87;;
77581;SDS011;66726;52.388;9.986;2023-04-06T07:11:52;23.13;;;12.27;;
77581;SDS011;66726;52.388;9.986;2023-04-06T07:14:26;21.03;;;13.50;;
77581;SDS011;66726;52.388;9.986;2023-04-06T07:16:58;14.27;;;10.67;;
77581;SDS011;66726;52.388;9.986;2023-04-06T07:19:30;14.23;;;9.97;;
77581;SDS011;66726;52.388;9.986;2023-04-06T07:22:01;14.13;;;10.43;;
77581;SDS011;66726;52.388;9.986;2023-04-06T07:24:33;15.17;;;9.80;;
77581;SDS011;66726;52.388;9.986;2023-04-06T07:27:05;14.03;;;9.67;;
77581;SDS011;66726;52.388;9.986;2023-04-06T07:29:39;13.30;;;9.70;;
77581;SDS011;66726;52.388;9.986;2023-04-06T07:32:10;11.73;;;8.67;;
77581;SDS011;66726;52.388;9.986;2023-04-06T07:34:42;12.43;;;9.27;;
77581;SDS011;66726;52.388;9.986;2023-04-06T07:37:14;12.23;;;8.67;;
77581;SDS011;66726;52.388;9.986;2023-04-06T07:39:46;13.23;;;9.67;;
77581;SDS011;66726;52.388;9.986;2023-04-06T07:42:18;11.77;;;9.40;;
77581;SDS011;66726;52.388;9.986;2023-04-06T07:44:51;13.27;;;8.90;;
77581;SDS011;66726;52.388;9.986;2023-04-06T07:47:23;12.07;;;9.23;;
77581;SDS011;66726;52.388;9.986;2023-04-06T07:49:55;10.73;;;8.83;;
77581;SDS011;66726;52.388;9.986;2023-04-06T07:52:27;11.67;;;8.50;;
77581;SDS011;66726;52.388;9.986;2023-04-06T07:55:01;11.70;;;8.27;;
77581;SDS011;66726;52.388;9.986;2023-04-06T07:57:34;8.70;;;7.80;;
77581;SDS011;66726;52.388;9.986;2023-04-06T08:00:08;10.67;;;7.40;;
77581;SDS011;66726;52.388;9.986;2023-04-06T08:02:43;9.47;;;8.10;;
77581;SDS011;66726;52.388;9.986;2023-04-06T08:05:15;8.23;;;6.83;;
77581;SDS011;66726;52.388;9.986;2023-04-06T08:07:46;10.70;;;7.47;;
77581;SDS011;66726;52.388;9.986;2023-04-06T08:10:18;9.70;;;6.93;;
77581;SDS011;66726;52.388;9.986;2023-04-06T08:12:50;11.57;;;7.03;;
77581;SDS011;66726;52.388;9.986;2023-04-06T08:15:23;9.03;;;7.70;;
77581;SDS011;66726;52.388;9.986;2023-04-06T08:17:55;12.17;;;8.53;;
77581;SDS011;66726;52.388;9.986;2023-04-06T08:20:29;9.50;;;7.10;;
77581;SDS011;66726;52.388;9.986;2023-04-06T08:23:02;11.40;;;6.57;;
77581;SDS011;66726;52.388;9.986;2023-04-06T08:25:35;6.90;;;6.20;;
77581;SDS011;66726;52.388;9.986;2023-04-06T08:28:09;9.57;;;6.90;;
77581;SDS011;66726;52.388;9.986;2023-04-06T08:30:42;14.03;;;6.67;;
77581;SDS011;66726;52.388;9.986;2023-04-06T08:33:15;9.57;;;6.80;;
77581;SDS011;66726;52.388;9.986;2023-04-06T08:35:47;8.63;;;6.60;;
77581;SDS011;66726;52.388;9.986;2023-04-06T08:38:20;8.30;;;6.60;;
77581;SDS011;66726;52.388;9.986;2023-04-06T08:40:52;8.50;;;6.60;;
77581;SDS011;66726;52.388;9.986;2023-04-06T08:43:26;12.50;;;6.80;;
77581;SDS011;66726;52.388;9.986;2023-04-06T08:46:01;8.83;;;6.53;;
77581;SDS011;66726;52.388;9.986;2023-04-06T08:48:32;9.60;;;7.20;;
77581;SDS011;66726;52.388;9.986;2023-04-06T08:51:05;12.20;;;7.27;;
77581;SDS011;66726;52.388;9.986;2023-04-06T08:53:38;7.50;;;6.50;;
77581;SDS011;66726;52.388;9.986;2023-04-06T08:56:10;10.47;;;6.77;;
77581;SDS011;66726;52.388;9.986;2023-04-06T08:58:42;8.60;;;6.50;;
77581;SDS011;66726;52.388;9.986;2023-04-06T09:01:17;9.47;;;6.33;;
77581;SDS011;66726;52.388;9.986;2023-04-06T09:03:56;7.93;;;6.37;;
77581;SDS011;66726;52.388;9.986;2023-04-06T09:06:37;7.70;;;6.57;;
77581;SDS011;66726;52.388;9.986;2023-04-06T09:09:09;10.17;;;7.13;;
77581;SDS011;66726;52.388;9.986;2023-04-06T09:11:42;8.40;;;6.60;;
77581;SDS011;66726;52.388;9.986;2023-04-06T09:14:14;8.23;;;6.60;;
77581;SDS011;66726;52.388;9.986;2023-04-06T09:17:02;7.57;;;6.47;;
77581;SDS011;66726;52.388;9.986;2023-04-06T09:19:33;9.07;;;7.10;;
77581;SDS011;66726;52.388;9.986;2023-04-06T09:22:17;8.33;;;6.80;;
77581;SDS011;66726;52.388;9.986;2023-04-06T09:24:51;9.90;;;6.90;;
77581;SDS011;66726;52.388;9.986;2023-04-06T09:27:29;9.60;;;6.57;;
77581;SDS011;66726;52.388;9.986;2023-04-06T09:30:04;10.43;;;6.63;;
77581;SDS011;66726;52.388;9.986;2023-04-06T09:32:47;7.87;;;6.43;;
77581;SDS011;66726;52.388;9.986;2023-04-06T09:35:22;7.80;;;6.63;;
77581;SDS011;66726;52.388;9.986;2023-04-06T09:37:57;9.37;;;7.17;;
77581;SDS011;66726;52.388;9.986;2023-04-06T09:40:47;7.73;;;6.93;;
77581;SDS011;66726;52.388;9.986;2023-04-06T09:43:27;7.87;;;6.30;;
77581;SDS011;66726;52.388;9.986;2023-04-06T09:46:00;9.03;;;6.73;;
77581;SDS011;66726;52.388;9.986;2023-04-06T09:48:34;7.67;;;6.87;;
77581;SDS011;66726;52.388;9.986;2023-04-06T09:51:07;9.77;;;7.23;;
77581;SDS011;66726;52.388;9.986;2023-04-06T09:53:43;7.80;;;6.40;;
77581;SDS011;66726;52.388;9.986;2023-04-06T09:56:20;10.50;;;6.77;;
77581;SDS011;66726;52.388;9.986;2023-04-06T09:59:21;8.07;;;6.83;;
77581;SDS011;66726;52.388;9.986;2023-04-06T10:02:08;11.17;;;7.20;;
77581;SDS011;66726;52.388;9.986;2023-04-06T10:04:53;8.97;;;6.73;;
77581;SDS011;66726;52.388;9.986;2023-04-06T10:07:33;9.93;;;6.80;;
77581;SDS011;66726;52.388;9.986;2023-04-06T10:10:27;10.57;;;6.67;;
77581;SDS011;66726;52.388;9.986;2023-04-06T10:13:01;10.20;;;6.73;;
77581;SDS011;66726;52.388;9.986;2023-04-06T10:15:36;8.80;;;6.97;;
77581;SDS011;66726;52.388;9.986;2023-04-06T10:18:10;10.00;;;7.20;;
77581;SDS011;66726;52.388;9.986;2023-04-06T10:20:47;10.47;;;6.77;;
77581;SDS011;66726;52.388;9.986;2023-04-06T10:23:29;7.67;;;6.80;;
77581;SDS011;66726;52.388;9.986;2023-04-06T10:26:12;7.33;;;6.57;;
77581;SDS011;66726;52.388;9.986;2023-04-06T10:28:47;8.83;;;7.03;;
77581;SDS011;66726;52.388;9.986;2023-04-06T10:31:24;8.67;;;6.87;;
77581;SDS011;66726;52.388;9.986;2023-04-06T10:33:58;9.57;;;7.60;;
77581;SDS011;66726;52.388;9.986;2023-04-06T10:36:33;9.37;;;7.07;;
77581;SDS011;66726;52.388;9.986;2023-04-06T10:39:07;10.60;;;7.90;;
77581;SDS011;66726;52.388;9.986;2023-04-06T10:41:41;8.87;;;6.77;;
77581;SDS011;66726;52.388;9.986;2023-04-06T10:44:17;10.37;;;6.97;;
77581;SDS011;66726;52.388;9.986;2023-04-06T10:46:52;8.27;;;6.80;;
77581;SDS011;66726;52.388;9.986;2023-04-06T10:49:27;10.20;;;7.23;;
77581;SDS011;66726;52.388;9.986;2023-04-06T10:52:00;7.73;;;6.73;;
77581;SDS011;66726;52.388;9.986;2023-04-06T10:54:33;9.17;;;7.63;;
77581;SDS011;66726;52.388;9.986;2023-04-06T10:57:13;8.50;;;7.37;;
77581;SDS011;66726;52.388;9.986;2023-04-06T10:59:56;8.57;;;7.77;;
77581;SDS011;66726;52.388;9.986;2023-04-06T11:02:28;10.97;;;7.60;;
77581;SDS011;66726;52.388;9.986;2023-04-06T11:05:00;9.33;;;7.93;;
77581;SDS011;66726;52.388;9.986;2023-04-06T11:07:34;9.67;;;7.77;;
77581;SDS011;66726;52.388;9.986;2023-04-06T11:10:06;8.27;;;7.47;;
77581;SDS011;66726;52.388;9.986;2023-04-06T11:12:45;9.50;;;6.87;;
77581;SDS011;66726;52.388;9.986;2023-04-06T11:15:25;7.90;;;6.53;;
77581;SDS011;66726;52.388;9.986;2023-04-06T11:18:06;7.53;;;6.73;;
77581;SDS011;66726;52.388;9.986;2023-04-06T11:20:38;9.23;;;6.90;;
77581;SDS011;66726;52.388;9.986;2023-04-06T11:23:25;10.47;;;7.33;;
77581;SDS011;66726;52.388;9.986;2023-04-06T11:25:57;8.57;;;7.27;;
77581;SDS011;66726;52.388;9.986;2023-04-06T11:28:28;9.87;;;7.13;;
77581;SDS011;66726;52.388;9.986;2023-04-06T11:31:01;7.77;;;6.63;;
77581;SDS011;66726;52.388;9.986;2023-04-06T11:33:35;9.77;;;6.80;;
77581;SDS011;66726;52.388;9.986;2023-04-06T11:36:07;7.70;;;6.90;;
77581;SDS011;66726;52.388;9.986;2023-04-06T11:38:43;7.97;;;6.93;;
77581;SDS011;66726;52.388;9.986;2023-04-06T11:41:15;7.73;;;6.93;;
77581;SDS011;66726;52.388;9.986;2023-04-06T11:43:54;9.13;;;6.70;;
77581;SDS011;66726;52.388;9.986;2023-04-06T11:46:32;7.23;;;6.53;;
77581;SDS011;66726;52.388;9.986;2023-04-06T11:49:03;9.53;;;7.47;;
77581;SDS011;66726;52.388;9.986;2023-04-06T11:51:36;7.37;;;6.67;;
77581;SDS011;66726;52.388;9.986;2023-04-06T11:54:09;7.73;;;6.73;;
77581;SDS011;66726;52.388;9.986;2023-04-06T11:56:42;8.37;;;7.23;;
77581;SDS011;66726;52.388;9.986;2023-04-06T11:59:17;8.67;;;7.77;;
77581;SDS011;66726;52.388;9.986;2023-04-06T12:01:49;9.63;;;7.90;;
77581;SDS011;66726;52.388;9.986;2023-04-06T12:04:21;10.10;;;7.13;;
77581;SDS011;66726;52.388;9.986;2023-04-06T12:06:53;6.93;;;6.23;;
77581;SDS011;66726;52.388;9.986;2023-04-06T12:09:27;7.73;;;6.93;;
77581;SDS011;66726;52.388;9.986;2023-04-06T12:12:00;8.47;;;6.87;;
77581;SDS011;66726;52.388;9.986;2023-04-06T12:14:32;7.73;;;6.80;;
77581;SDS011;66726;52.388;9.986;2023-04-06T12:17:06;9.07;;;7.17;;
77581;SDS011;66726;52.388;9.986;2023-04-06T12:19:38;9.93;;;7.40;;
77581;SDS011;66726;52.388;9.986;2023-04-06T12:22:10;8.40;;;7.20;;
77581;SDS011;66726;52.388;9.986;2023-04-06T12:24:43;11.10;;;7.50;;
77581;SDS011;66726;52.388;9.986;2023-04-06T12:27:15;8.10;;;7.30;;
77581;SDS011;66726;52.388;9.986;2023-04-06T12:29:47;7.73;;;6.93;;
77581;SDS011;66726;52.388;9.986;2023-04-06T12:32:19;8.20;;;6.90;;
77581;SDS011;66726;52.388;9.986;2023-04-06T12:34:51;8.27;;;6.80;;
77581;SDS011;66726;52.388;9.986;2023-04-06T12:37:23;8.30;;;6.37;;
77581;SDS011;66726;52.388;9.986;2023-04-06T12:39:57;9.53;;;7.53;;
77581;SDS011;66726;52.388;9.986;2023-04-06T12:42:30;8.27;;;6.50;;
77581;SDS011;66726;52.388;9.986;2023-04-06T12:45:02;9.10;;;7.40;;
77581;SDS011;66726;52.388;9.986;2023-04-06T12:47:38;8.43;;;7.53;;
77581;SDS011;66726;52.388;9.986;2023-04-06T12:50:10;11.57;;;7.40;;
77581;SDS011;66726;52.388;9.986;2023-04-06T12:52:41;8.13;;;7.33;;
77581;SDS011;66726;52.388;9.986;2023-04-06T12:55:15;7.70;;;6.60;;
77581;SDS011;66726;52.388;9.986;2023-04-06T12:57:47;8.80;;;7.90;;
77581;SDS011;66726;52.388;9.986;2023-04-06T13:00:20;7.80;;;7.00;;
77581;SDS011;66726;52.388;9.986;2023-04-06T13:02:53;7.87;;;7.10;;
77581;SDS011;66726;52.388;9.986;2023-04-06T13:05:25;8.03;;;7.23;;
77581;SDS011;66726;52.388;9.986;2023-04-06T13:08:00;11.53;;;7.40;;
77581;SDS011;66726;52.388;9.986;2023-04-06T13:10:33;9.47;;;8.03;;
77581;SDS011;66726;52.388;9.986;2023-04-06T13:13:06;7.40;;;6.60;;
77581;SDS011;66726;52.388;9.986;2023-04-06T13:15:38;10.83;;;7.80;;
77581;SDS011;66726;52.388;9.986;2023-04-06T13:18:12;11.13;;;8.13;;
77581;SDS011;66726;52.388;9.986;2023-04-06T13:20:44;9.30;;;8.23;;
77581;SDS011;66726;52.388;9.986;2023-04-06T13:23:18;9.63;;;7.57;;
77581;SDS011;66726;52.388;9.986;2023-04-06T13:25:58;9.20;;;8.30;;
77581;SDS011;66726;52.388;9.986;2023-04-06T13:28:34;7.93;;;7.13;;
77581;SDS011;66726;52.388;9.986;2023-04-06T13:31:06;9.73;;;7.60;;
77581;SDS011;66726;52.388;9.986;2023-04-06T13:33:38;8.80;;;7.90;;
77581;SDS011;66726;52.388;9.986;2023-04-06T13:36:11;9.93;;;8.93;;
77581;SDS011;66726;52.388;9.986;2023-04-06T13:38:43;10.50;;;9.40;;
77581;SDS011;66726;52.388;9.986;2023-04-06T13:41:21;9.63;;;8.17;;
77581;SDS011;66726;52.388;9.986;2023-04-06T13:43:55;12.13;;;10.87;;
77581;SDS011;66726;52.388;9.986;2023-04-06T13:46:27;11.73;;;9.73;;
77581;SDS011;66726;52.388;9.986;2023-04-06T13:48:58;9.57;;;8.57;;
77581;SDS011;66726;52.388;9.986;2023-04-06T13:51:30;14.33;;;11.87;;
77581;SDS011;66726;52.388;9.986;2023-04-06T13:54:02;15.00;;;12.07;;
77581;SDS011;66726;52.388;9.986;2023-04-06T13:56:35;10.17;;;9.13;;
77581;SDS011;66726;52.388;9.986;2023-04-06T13:59:07;9.30;;;8.10;;
77581;SDS011;66726;52.388;9.986;2023-04-06T14:01:39;9.17;;;8.17;;
77581;SDS011;66726;52.388;9.986;2023-04-06T14:04:11;9.90;;;8.90;;
77581;SDS011;66726;52.388;9.986;2023-04-06T14:06:44;10.83;;;8.63;;
77581;SDS011;66726;52.388;9.986;2023-04-06T14:09:16;8.37;;;7.57;;
77581;SDS011;66726;52.388;9.986;2023-04-06T14:11:49;11.57;;;7.87;;
77581;SDS011;66726;52.388;9.986;2023-04-06T14:14:23;7.70;;;6.90;;
77581;SDS011;66726;52.388;9.986;2023-04-06T14:16:54;8.57;;;7.37;;
77581;SDS011;66726;52.388;9.986;2023-04-06T14:19:26;9.97;;;7.10;;
77581;SDS011;66726;52.388;9.986;2023-04-06T14:22:00;14.53;;;7.40;;
77581;SDS011;66726;52.388;9.986;2023-04-06T14:24:31;9.50;;;7.03;;
77581;SDS011;66726;52.388;9.986;2023-04-06T14:27:05;8.57;;;7.60;;
77581;SDS011;66726;52.388;9.986;2023-04-06T14:29:39;9.80;;;7.27;;
77581;SDS011;66726;52.388;9.986;2023-04-06T14:32:10;10.20;;;7.60;;
77581;SDS011;66726;52.388;9.986;2023-04-06T14:34:43;9.70;;;7.60;;
77581;SDS011;66726;52.388;9.986;2023-04-06T14:37:14;9.53;;;7.60;;
77581;SDS011;66726;52.388;9.986;2023-04-06T14:39:47;8.57;;;7.27;;
77581;SDS011;66726;52.388;9.986;2023-04-06T14:42:21;9.30;;;7.97;;
77581;SDS011;66726;52.388;9.986;2023-04-06T14:44:53;11.13;;;8.80;;
77581;SDS011;66726;52.388;9.986;2023-04-06T14:47:25;10.20;;;8.13;;
77581;SDS011;66726;52.388;9.986;2023-04-06T14:49:57;11.07;;;8.70;;
77581;SDS011;66726;52.388;9.986;2023-04-06T14:52:29;10.40;;;8.93;;
77581;SDS011;66726;52.388;9.986;2023-04-06T14:55:02;9.63;;;7.70;;
77581;SDS011;66726;52.388;9.986;2023-04-06T14:57:37;13.43;;;10.10;;
77581;SDS011;66726;52.388;9.986;2023-04-06T15:00:12;11.23;;;9.37;;
77581;SDS011;66726;52.388;9.986;2023-04-06T15:02:47;9.73;;;8.43;;
77581;SDS011;66726;52.388;9.986;2023-04-06T15:05:19;10.83;;;8.27;;
77581;SDS011;66726;52.388;9.986;2023-04-06T15:07:51;10.20;;;8.43;;
77581;SDS011;66726;52.388;9.986;2023-04-06T15:10:23;8.27;;;7.47;;